Time;durP1;ratioP1;P1;durP2;ratioP2;P2;SDS_P1;SDS_P2;PMS_P1;PMS_P2;Temp;Humidity;BMP_temperature;BMP_pressure;BME280_temperature;BME280_humidity;BME280_pressure;Samples;Min_cycle;Max_cycle;Signal;HPM_P1;HPM_P2
2023/11/18 00:01:08;;;;;;;3.35;2.58;;;;;;;;;;6182451;23;20028;-86
2023/11/18 00:03:35;;;;;;;2.67;2.47;;;;;;;;;;6157158;23;20021;-84
2023/11/18 00:06:03;;;;;;;5.05;3.00;;;;;;;;;;6184658;23;20029;-86
2023/11/18 00:08:31;;;;;;;4.40;2.97;;;;;;;;;;6183806;23;20065;-86
2023/11/18 00:10:58;;;;;;;4.97;2.45;;;;;;;;;;6183631;22;20016;-86
2023/11/18 00:13:28;;;;;;;6.50;2.72;;;;;;;;;;6157483;23;20074;-86
2023/11/18 00:15:57;;;;;;;4.60;2.60;;;;;;;;;;6156824;23;20031;-86
2023/11/18 00:18:25;;;;;;;3.75;2.50;;;;;;;;;;6158002;23;20025;-86
2023/11/18 00:20:52;;;;;;;3.60;2.78;;;;;;;;;;6157842;23;20021;-86
2023/11/18 00:23:19;;;;;;;2.70;2.50;;;;;;;;;;6184863;23;20017;-85
2023/11/18 00:25:48;;;;;;;3.60;2.45;;;;;;;;;;6159903;23;20330;-86
2023/11/18 00:28:16;;;;;;;8.05;3.15;;;;;;;;;;6157730;23;20097;-85
2023/11/18 00:30:43;;;;;;;6.70;4.05;;;;;;;;;;6155902;23;20033;-86
2023/11/18 00:33:10;;;;;;;5.80;3.55;;;;;;;;;;6181760;23;20021;-85
2023/11/18 00:35:37;;;;;;;3.03;2.72;;;;;;;;;;6155315;23;20455;-86
2023/11/18 00:38:05;;;;;;;3.63;2.80;;;;;;;;;;6156488;23;20339;-86
2023/11/18 00:40:32;;;;;;;3.38;2.78;;;;;;;;;;6182085;23;20017;-85
2023/11/18 00:42:59;;;;;;;3.70;2.83;;;;;;;;;;6155843;23;20029;-85
2023/11/18 00:45:28;;;;;;;6.05;3.08;;;;;;;;;;6155591;23;20021;-86
2023/11/18 00:47:56;;;;;;;3.55;3.03;;;;;;;;;;6156163;23;20052;-85
2023/11/18 00:50:23;;;;;;;3.08;2.78;;;;;;;;;;6181755;23;20104;-86
2023/11/18 00:52:51;;;;;;;2.70;2.50;;;;;;;;;;6155917;23;20502;-86
2023/11/18 00:55:18;;;;;;;2.50;2.20;;;;;;;;;;6180754;23;20075;-86
2023/11/18 00:57:45;;;;;;;6.20;2.22;;;;;;;;;;6155882;23;20062;-86
2023/11/18 01:00:14;;;;;;;1.92;1.73;;;;;;;;;;6155872;23;20052;-86
2023/11/18 01:02:41;;;;;;;3.88;2.58;;;;;;;;;;6155974;23;20049;-85
2023/11/18 01:05:10;;;;;;;2.08;1.70;;;;;;;;;;6155144;23;20020;-86
2023/11/18 01:07:38;;;;;;;2.38;1.90;;;;;;;;;;6181689;23;20458;-86
2023/11/18 01:10:06;;;;;;;3.65;1.77;;;;;;;;;;6181928;23;20034;-86
2023/11/18 01:12:34;;;;;;;2.22;2.00;;;;;;;;;;6181815;23;20025;-86
2023/11/18 01:15:03;;;;;;;3.92;1.98;;;;;;;;;;6155600;23;20029;-86
2023/11/18 01:17:31;;;;;;;2.03;1.92;;;;;;;;;;6181539;23;20028;-86
2023/11/18 01:19:59;;;;;;;2.70;1.92;;;;;;;;;;6181755;23;20017;-86
2023/11/18 01:22:26;;;;;;;3.15;2.13;;;;;;;;;;6155617;23;20028;-86
2023/11/18 01:24:53;;;;;;;2.00;1.80;;;;;;;;;;6155281;23;20226;-86
2023/11/18 01:27:22;;;;;;;3.20;2.00;;;;;;;;;;6156005;23;20027;-85
2023/11/18 01:29:50;;;;;;;2.13;1.60;;;;;;;;;;6155989;23;20017;-86
2023/11/18 01:32:18;;;;;;;1.58;1.48;;;;;;;;;;6156262;23;20021;-86
2023/11/18 01:34:50;;;;;;;1.70;1.45;;;;;;;;;;6181771;23;20021;-86
2023/11/18 01:37:17;;;;;;;6.72;1.65;;;;;;;;;;6181709;23;20028;-86
2023/11/18 01:39:45;;;;;;;1.80;1.50;;;;;;;;;;6182029;23;20311;-86
2023/11/18 01:42:12;;;;;;;2.08;1.90;;;;;;;;;;6182130;23;20025;-86
2023/11/18 01:44:40;;;;;;;2.03;1.83;;;;;;;;;;6155779;23;20081;-86
2023/11/18 01:47:10;;;;;;;4.78;1.60;;;;;;;;;;6181996;23;20025;-85
2023/11/18 01:49:39;;;;;;;1.52;1.27;;;;;;;;;;6156208;22;20453;-85
2023/11/18 01:52:08;;;;;;;1.70;1.60;;;;;;;;;;6155762;23;20346;-86
2023/11/18 01:54:37;;;;;;;1.42;1.33;;;;;;;;;;6155007;23;20025;-86
2023/11/18 01:57:05;;;;;;;2.15;1.55;;;;;;;;;;6181725;23;20388;-85
2023/11/18 01:59:34;;;;;;;3.30;1.60;;;;;;;;;;6181894;23;20066;-86
2023/11/18 02:02:02;;;;;;;2.00;1.45;;;;;;;;;;6155722;23;20354;-86
2023/11/18 02:04:30;;;;;;;1.83;1.52;;;;;;;;;;6155713;23;20472;-86
2023/11/18 02:06:58;;;;;;;1.80;1.70;;;;;;;;;;6156162;23;20096;-86
2023/11/18 02:09:30;;;;;;;1.80;1.70;;;;;;;;;;6181715;23;20029;-86
2023/11/18 02:12:13;;;;;;;3.47;2.10;;;;;;;;;;6155996;23;20032;-86
2023/11/18 02:14:40;;;;;;;3.17;1.77;;;;;;;;;;6155259;23;20094;-86
2023/11/18 02:17:10;;;;;;;2.55;1.60;;;;;;;;;;6155704;23;20025;-86
2023/11/18 02:19:39;;;;;;;2.67;1.58;;;;;;;;;;6181028;23;20051;-86
2023/11/18 02:22:07;;;;;;;2.33;2.03;;;;;;;;;;6181900;23;20105;-86
2023/11/18 02:24:37;;;;;;;1.88;1.77;;;;;;;;;;6180978;23;20025;-86
2023/11/18 02:27:11;;;;;;;2.35;1.50;;;;;;;;;;6155474;23;20029;-85
2023/11/18 02:29:43;;;;;;;1.67;1.58;;;;;;;;;;6155726;23;20021;-84
2023/11/18 02:32:23;;;;;;;7.85;1.80;;;;;;;;;;6156040;23;20029;-86
2023/11/18 02:35:03;;;;;;;3.63;1.80;;;;;;;;;;6181384;23;20465;-86
2023/11/18 02:37:32;;;;;;;2.50;1.67;;;;;;;;;;6155233;23;20059;-86
2023/11/18 02:40:08;;;;;;;2.88;2.00;;;;;;;;;;6155808;23;20029;-86
2023/11/18 02:42:37;;;;;;;1.75;1.55;;;;;;;;;;6155642;23;20029;-86
2023/11/18 02:45:07;;;;;;;3.95;1.88;;;;;;;;;;6155685;23;20021;-86
2023/11/18 02:47:34;;;;;;;2.38;1.65;;;;;;;;;;6181698;23;20029;-86
2023/11/18 02:50:05;;;;;;;4.00;1.95;;;;;;;;;;6155595;23;20044;-85
2023/11/18 02:52:36;;;;;;;4.95;2.00;;;;;;;;;;6181084;22;20029;-86
2023/11/18 02:55:03;;;;;;;2.25;1.60;;;;;;;;;;6155166;23;20025;-86
2023/11/18 02:57:30;;;;;;;12.55;2.50;;;;;;;;;;6155585;23;20334;-85
2023/11/18 03:00:00;;;;;;;2.58;1.60;;;;;;;;;;6181621;23;20017;-86
2023/11/18 03:02:29;;;;;;;1.80;1.45;;;;;;;;;;6155465;23;20025;-86
2023/11/18 03:04:57;;;;;;;3.90;1.38;;;;;;;;;;6180673;23;20025;-85
2023/11/18 03:07:26;;;;;;;2.00;1.63;;;;;;;;;;6155426;23;20025;-86
2023/11/18 03:09:57;;;;;;;2.72;1.50;;;;;;;;;;6154783;23;20021;-86
2023/11/18 03:12:27;;;;;;;3.35;1.40;;;;;;;;;;6154861;23;20466;-86
2023/11/18 03:14:57;;;;;;;3.58;1.10;;;;;;;;;;6155047;23;20028;-85
2023/11/18 03:17:24;;;;;;;1.00;1.00;;;;;;;;;;6154142;22;20121;-84
2023/11/18 03:19:52;;;;;;;1.25;1.15;;;;;;;;;;6181121;23;20369;-85
2023/11/18 03:22:19;;;;;;;3.63;1.45;;;;;;;;;;6180613;23;20452;-85
2023/11/18 03:24:46;;;;;;;1.50;1.40;;;;;;;;;;6154307;23;20021;-86
2023/11/18 03:27:14;;;;;;;2.35;1.23;;;;;;;;;;6158355;23;20083;-86
2023/11/18 03:29:45;;;;;;;1.45;1.35;;;;;;;;;;6182109;23;20337;-85
2023/11/18 03:32:13;;;;;;;2.15;1.55;;;;;;;;;;6155348;22;20420;-85
2023/11/18 03:34:40;;;;;;;1.20;1.20;;;;;;;;;;6155902;23;20025;-86
2023/11/18 03:37:08;;;;;;;1.40;1.30;;;;;;;;;;6156532;23;20021;-86
2023/11/18 03:39:35;;;;;;;1.35;1.23;;;;;;;;;;6182327;23;20029;-86
2023/11/18 03:42:02;;;;;;;1.42;1.30;;;;;;;;;;6156080;23;20527;-86
2023/11/18 03:44:29;;;;;;;1.40;1.30;;;;;;;;;;6181497;23;20025;-86
2023/11/18 03:46:57;;;;;;;4.97;1.67;;;;;;;;;;6182258;23;20048;-85
2023/11/18 03:49:24;;;;;;;4.68;1.33;;;;;;;;;;6156280;23;20454;-86
2023/11/18 03:51:51;;;;;;;6.90;1.30;;;;;;;;;;6181425;23;20104;-86
2023/11/18 03:54:18;;;;;;;1.67;1.30;;;;;;;;;;6155453;23;20022;-86
2023/11/18 03:56:45;;;;;;;1.40;1.30;;;;;;;;;;6155728;23;20078;-86
2023/11/18 03:59:13;;;;;;;1.27;1.23;;;;;;;;;;6156475;23;20377;-86
2023/11/18 04:01:40;;;;;;;1.25;1.15;;;;;;;;;;6156607;23;20029;-86
2023/11/18 04:04:08;;;;;;;1.92;1.60;;;;;;;;;;6156349;23;20029;-86
2023/11/18 04:06:35;;;;;;;2.97;1.30;;;;;;;;;;6156372;23;20048;-86
2023/11/18 04:09:03;;;;;;;3.53;1.52;;;;;;;;;;6156632;23;20070;-86
2023/11/18 04:11:30;;;;;;;1.80;1.70;;;;;;;;;;6156453;23;20327;-86
2023/11/18 04:13:57;;;;;;;3.63;1.67;;;;;;;;;;6156198;23;20029;-86
2023/11/18 04:16:25;;;;;;;1.85;1.73;;;;;;;;;;6156014;23;20035;-86
2023/11/18 04:18:52;;;;;;;7.65;1.77;;;;;;;;;;6156471;23;20087;-86
2023/11/18 04:21:19;;;;;;;2.67;1.83;;;;;;;;;;6156457;23;20021;-85
2023/11/18 04:23:46;;;;;;;2.03;1.67;;;;;;;;;;6181847;23;20442;-85
2023/11/18 04:26:14;;;;;;;2.30;1.40;;;;;;;;;;6156257;23;20036;-85
2023/11/18 04:28:41;;;;;;;3.35;1.15;;;;;;;;;;6156188;23;20021;-85
2023/11/18 04:31:08;;;;;;;2.03;1.92;;;;;;;;;;6181984;23;20025;-86
2023/11/18 04:33:36;;;;;;;1.63;1.52;;;;;;;;;;6156151;23;20112;-86
2023/11/18 04:36:05;;;;;;;2.33;1.23;;;;;;;;;;6182362;23;20021;-86
2023/11/18 04:38:32;;;;;;;5.28;1.20;;;;;;;;;;6155985;23;20035;-85
2023/11/18 04:41:00;;;;;;;2.15;1.30;;;;;;;;;;6156577;23;20025;-86
2023/11/18 04:43:29;;;;;;;2.00;1.20;;;;;;;;;;6155773;23;20029;-86
2023/11/18 04:46:08;;;;;;;2.50;1.35;;;;;;;;;;6158903;23;20319;-86
2023/11/18 04:48:36;;;;;;;5.60;1.20;;;;;;;;;;6181645;23;20078;-86
2023/11/18 04:51:08;;;;;;;19.90;3.65;;;;;;;;;;6156975;23;20017;-86
2023/11/18 04:53:35;;;;;;;4.32;1.20;;;;;;;;;;6156052;23;20040;-86
2023/11/18 04:56:02;;;;;;;1.20;1.10;;;;;;;;;;6181909;23;20021;-86
2023/11/18 04:58:30;;;;;;;3.58;1.25;;;;;;;;;;6156294;23;20021;-86
2023/11/18 05:00:57;;;;;;;2.33;1.65;;;;;;;;;;6182128;23;20021;-86
2023/11/18 05:03:24;;;;;;;1.77;1.67;;;;;;;;;;6155353;23;20021;-86
2023/11/18 05:05:52;;;;;;;5.90;2.97;;;;;;;;;;6181560;23;20088;-85
2023/11/18 05:08:25;;;;;;;2.90;2.70;;;;;;;;;;6156724;23;20032;-86
2023/11/18 05:10:54;;;;;;;3.13;2.72;;;;;;;;;;6155611;22;20024;-86
2023/11/18 05:13:21;;;;;;;6.07;2.08;;;;;;;;;;6181626;23;20021;-86
2023/11/18 05:15:49;;;;;;;2.60;1.77;;;;;;;;;;6181750;23;20047;-86
2023/11/18 05:18:17;;;;;;;2.20;1.42;;;;;;;;;;6155737;23;20025;-85
2023/11/18 05:20:45;;;;;;;1.65;1.55;;;;;;;;;;6155991;23;20036;-86
2023/11/18 05:23:12;;;;;;;2.40;1.50;;;;;;;;;;6155493;23;20503;-86
2023/11/18 05:25:40;;;;;;;5.90;3.83;;;;;;;;;;6180974;23;20041;-86
2023/11/18 05:28:10;;;;;;;7.70;4.68;;;;;;;;;;6155427;23;20043;-86
2023/11/18 05:30:39;;;;;;;5.25;4.68;;;;;;;;;;6155594;23;20089;-86
2023/11/18 05:33:06;;;;;;;8.38;4.40;;;;;;;;;;6155565;23;20017;-85
2023/11/18 05:35:34;;;;;;;4.70;3.33;;;;;;;;;;6154859;23;20029;-85
2023/11/18 05:38:06;;;;;;;8.85;5.53;;;;;;;;;;6155501;23;20025;-86
2023/11/18 05:40:35;;;;;;;13.90;6.60;;;;;;;;;;6155940;23;20017;-86
2023/11/18 05:43:06;;;;;;;6.85;3.92;;;;;;;;;;6155636;23;20025;-85
2023/11/18 05:45:55;;;;;;;3.80;2.90;;;;;;;;;;6155688;23;20444;-86
2023/11/18 05:48:21;;;;;;;2.35;2.15;;;;;;;;;;6181378;23;20021;-86
2023/11/18 05:50:48;;;;;;;5.90;2.58;;;;;;;;;;6156007;23;20108;-86
2023/11/18 05:53:15;;;;;;;2.38;2.17;;;;;;;;;;6155511;23;20082;-86
2023/11/18 05:55:43;;;;;;;3.85;1.73;;;;;;;;;;6155156;23;20025;-86
2023/11/18 05:58:10;;;;;;;3.15;1.55;;;;;;;;;;6155946;23;20085;-86
2023/11/18 06:00:37;;;;;;;8.40;2.03;;;;;;;;;;6155889;23;20025;-85
2023/11/18 06:03:08;;;;;;;4.40;1.63;;;;;;;;;;6181563;23;20067;-86
2023/11/18 06:05:35;;;;;;;2.83;1.50;;;;;;;;;;6155220;23;20136;-86
2023/11/18 06:08:04;;;;;;;2.15;1.50;;;;;;;;;;6180848;23;20017;-85
2023/11/18 06:10:32;;;;;;;4.72;2.05;;;;;;;;;;6155452;23;20032;-85
2023/11/18 06:12:59;;;;;;;1.70;1.60;;;;;;;;;;6181544;23;20049;-85
2023/11/18 06:15:27;;;;;;;1.67;1.58;;;;;;;;;;6180997;23;20105;-85
2023/11/18 06:17:57;;;;;;;2.88;2.40;;;;;;;;;;6155469;23;20029;-85
2023/11/18 06:20:25;;;;;;;2.15;1.92;;;;;;;;;;6155152;23;20021;-85
2023/11/18 06:22:52;;;;;;;4.68;2.05;;;;;;;;;;6155427;23;20082;-85
2023/11/18 06:25:20;;;;;;;3.58;2.63;;;;;;;;;;6155094;23;20046;-85
2023/11/18 06:27:47;;;;;;;2.97;2.28;;;;;;;;;;6155814;23;20028;-85
2023/11/18 06:30:15;;;;;;;3.45;2.10;;;;;;;;;;6183171;23;20073;-85
2023/11/18 06:32:43;;;;;;;2.20;2.10;;;;;;;;;;6158466;23;20052;-85
2023/11/18 06:35:11;;;;;;;2.42;1.77;;;;;;;;;;6155952;23;20021;-85
2023/11/18 06:37:38;;;;;;;2.63;1.90;;;;;;;;;;6180582;23;20021;-86
2023/11/18 06:40:16;;;;;;;2.35;2.08;;;;;;;;;;6180810;23;20024;-85
2023/11/18 06:42:46;;;;;;;2.70;2.05;;;;;;;;;;6155587;23;20380;-85
2023/11/18 06:45:14;;;;;;;2.45;2.25;;;;;;;;;;6154680;22;20017;-86
2023/11/18 06:47:44;;;;;;;2.53;1.80;;;;;;;;;;6154779;22;20020;-86
2023/11/18 06:50:14;;;;;;;2.40;2.00;;;;;;;;;;6155711;23;20017;-86
2023/11/18 06:52:41;;;;;;;9.52;4.03;;;;;;;;;;6180914;23;20029;-85
2023/11/18 06:55:13;;;;;;;5.50;3.03;;;;;;;;;;6155592;23;20021;-85
2023/11/18 06:57:43;;;;;;;3.85;3.00;;;;;;;;;;6181492;23;20063;-86
2023/11/18 07:00:13;;;;;;;5.10;2.60;;;;;;;;;;6154838;23;20028;-85
2023/11/18 07:02:41;;;;;;;3.38;2.65;;;;;;;;;;6155252;23;20339;-86
2023/11/18 07:05:09;;;;;;;7.85;6.57;;;;;;;;;;6155145;23;20018;-86
2023/11/18 07:07:37;;;;;;;25.08;17.00;;;;;;;;;;6154740;23;20033;-86
2023/11/18 07:10:05;;;;;;;4.75;3.25;;;;;;;;;;6155284;23;20086;-86
2023/11/18 07:12:34;;;;;;;2.53;2.33;;;;;;;;;;6155200;23;20021;-85
2023/11/18 07:15:01;;;;;;;4.28;2.65;;;;;;;;;;6154588;23;20407;-85
2023/11/18 07:17:28;;;;;;;3.60;2.67;;;;;;;;;;6181283;23;20017;-86
2023/11/18 07:19:56;;;;;;;6.22;2.60;;;;;;;;;;6181579;23;20029;-86
2023/11/18 07:22:24;;;;;;;3.50;2.78;;;;;;;;;;6181276;23;20017;-86
2023/11/18 07:24:52;;;;;;;2.35;2.08;;;;;;;;;;6154944;23;20025;-86
2023/11/18 07:27:20;;;;;;;3.30;2.90;;;;;;;;;;6155080;23;20055;-86
2023/11/18 07:29:47;;;;;;;9.95;3.60;;;;;;;;;;6181274;23;20029;-86
2023/11/18 07:32:14;;;;;;;4.38;2.33;;;;;;;;;;6155071;23;20025;-86
2023/11/18 07:34:42;;;;;;;2.60;2.40;;;;;;;;;;6180405;23;20450;-86
2023/11/18 07:37:09;;;;;;;6.90;2.97;;;;;;;;;;6155176;23;20025;-86
2023/11/18 07:39:48;;;;;;;4.13;2.30;;;;;;;;;;6154964;23;20331;-86
2023/11/18 07:42:17;;;;;;;2.03;1.92;;;;;;;;;;6155319;23;20025;-86
2023/11/18 07:44:45;;;;;;;2.65;2.10;;;;;;;;;;6180838;23;20032;-85
2023/11/18 07:47:13;;;;;;;3.40;2.25;;;;;;;;;;6181253;23;20021;-86
2023/11/18 07:49:40;;;;;;;4.80;2.25;;;;;;;;;;6154853;23;20029;-86
2023/11/18 07:52:08;;;;;;;3.92;2.83;;;;;;;;;;6154913;23;20025;-86
2023/11/18 07:54:35;;;;;;;3.80;3.03;;;;;;;;;;6180791;23;20033;-85
2023/11/18 07:57:04;;;;;;;27.23;12.63;;;;;;;;;;6154723;23;20028;-86
2023/11/18 07:59:32;;;;;;;10.95;7.03;;;;;;;;;;6155266;23;20385;-86
2023/11/18 08:02:00;;;;;;;11.73;6.63;;;;;;;;;;6154841;23;20025;-85
2023/11/18 08:04:31;;;;;;;16.77;9.43;;;;;;;;;;6155364;23;20075;-85
2023/11/18 08:06:59;;;;;;;25.45;11.80;;;;;;;;;;6154873;23;20021;-84
2023/11/18 08:09:26;;;;;;;45.72;19.27;;;;;;;;;;6154774;23;20044;-85
2023/11/18 08:11:55;;;;;;;54.17;24.67;;;;;;;;;;6180951;23;20021;-86
2023/11/18 08:14:22;;;;;;;51.22;23.80;;;;;;;;;;6154690;23;20100;-85
2023/11/18 08:16:51;;;;;;;45.63;19.83;;;;;;;;;;6155006;23;20021;-86
2023/11/18 08:19:18;;;;;;;29.25;15.20;;;;;;;;;;6155536;23;20373;-85
2023/11/18 08:21:46;;;;;;;29.98;14.68;;;;;;;;;;6156050;23;20066;-85
2023/11/18 08:24:13;;;;;;;29.13;16.88;;;;;;;;;;6182015;23;20440;-86
2023/11/18 08:26:40;;;;;;;34.00;16.55;;;;;;;;;;6155837;23;20338;-86
2023/11/18 08:29:08;;;;;;;26.52;15.63;;;;;;;;;;6156581;23;20029;-86
2023/11/18 08:31:39;;;;;;;31.63;17.52;;;;;;;;;;6157084;23;20029;-86
2023/11/18 08:34:07;;;;;;;34.50;17.70;;;;;;;;;;6156199;23;20021;-85
2023/11/18 08:36:34;;;;;;;21.85;12.15;;;;;;;;;;6156102;23;20021;-86
2023/11/18 08:39:02;;;;;;;18.67;9.45;;;;;;;;;;6156013;23;20358;-86
2023/11/18 08:41:30;;;;;;;9.68;6.88;;;;;;;;;;6155963;23;20028;-86
2023/11/18 08:43:58;;;;;;;11.40;7.88;;;;;;;;;;6156194;23;20058;-85
2023/11/18 08:46:44;;;;;;;8.55;5.68;;;;;;;;;;6160120;23;20025;-85
2023/11/18 08:49:12;;;;;;;5.07;4.68;;;;;;;;;;6156458;23;20100;-85
2023/11/18 08:51:41;;;;;;;5.68;4.60;;;;;;;;;;6156148;23;20049;-85
2023/11/18 08:54:22;;;;;;;3.97;3.42;;;;;;;;;;6182237;23;20028;-85
2023/11/18 08:56:52;;;;;;;5.20;3.28;;;;;;;;;;6181615;23;20074;-86
2023/11/18 08:59:24;;;;;;;2.80;2.47;;;;;;;;;;6156042;23;20078;-86
2023/11/18 09:01:55;;;;;;;2.95;2.17;;;;;;;;;;6182235;23;20017;-86
2023/11/18 09:04:24;;;;;;;2.80;2.47;;;;;;;;;;6156177;23;20064;-86
2023/11/18 09:06:58;;;;;;;3.28;1.73;;;;;;;;;;6156696;23;20056;-86
2023/11/18 09:09:28;;;;;;;2.95;1.80;;;;;;;;;;6155662;23;20469;-85
2023/11/18 09:11:56;;;;;;;6.38;2.08;;;;;;;;;;6156475;23;20032;-86
2023/11/18 09:14:25;;;;;;;8.68;2.17;;;;;;;;;;6156211;23;20025;-86
2023/11/18 09:16:58;;;;;;;2.40;1.60;;;;;;;;;;6156848;23;20021;-86
2023/11/18 09:19:26;;;;;;;1.85;1.73;;;;;;;;;;6156308;23;20028;-86
2023/11/18 09:21:54;;;;;;;1.67;1.58;;;;;;;;;;6156235;23;20090;-85
2023/11/18 09:24:24;;;;;;;1.45;1.20;;;;;;;;;;6155288;23;20021;-85
2023/11/18 09:26:54;;;;;;;2.47;1.58;;;;;;;;;;6181789;23;20446;-85
2023/11/18 09:29:24;;;;;;;1.48;1.38;;;;;;;;;;6155743;23;20441;-86
2023/11/18 09:31:52;;;;;;;1.23;1.13;;;;;;;;;;6156535;23;20028;-85
2023/11/18 09:34:26;;;;;;;1.60;1.50;;;;;;;;;;6156112;23;20032;-86
2023/11/18 09:36:54;;;;;;;2.38;1.30;;;;;;;;;;6183046;23;20021;-86
2023/11/18 09:39:37;;;;;;;1.60;1.50;;;;;;;;;;6156171;23;20021;-86
2023/11/18 09:42:08;;;;;;;2.25;1.70;;;;;;;;;;6182099;23;20059;-86
2023/11/18 09:44:37;;;;;;;4.50;4.07;;;;;;;;;;6154716;23;20458;-85
2023/11/18 09:47:09;;;;;;;8.30;5.57;;;;;;;;;;6181308;23;20392;-85
2023/11/18 09:49:45;;;;;;;1.30;1.20;;;;;;;;;;6155643;23;20021;-86
2023/11/18 09:52:17;;;;;;;3.85;1.20;;;;;;;;;;6181069;23;20457;-86
2023/11/18 09:55:03;;;;;;;9.63;6.05;;;;;;;;;;6154907;22;20036;-85
2023/11/18 09:57:39;;;;;;;1.95;1.25;;;;;;;;;;6155634;23;20025;-85
2023/11/18 10:00:19;;;;;;;2.05;1.10;;;;;;;;;;6181802;23;20063;-86
2023/11/18 10:02:51;;;;;;;1.42;1.33;;;;;;;;;;6155550;23;20519;-86
2023/11/18 10:05:22;;;;;;;2.35;1.20;;;;;;;;;;6181581;23;20353;-86
2023/11/18 10:07:51;;;;;;;2.35;1.30;;;;;;;;;;6155852;23;20076;-86
2023/11/18 10:10:20;;;;;;;1.77;1.30;;;;;;;;;;6155406;23;20031;-86
2023/11/18 10:12:52;;;;;;;1.35;1.15;;;;;;;;;;6181570;23;20096;-86
2023/11/18 10:15:25;;;;;;;2.28;1.10;;;;;;;;;;6181436;23;20025;-85
2023/11/18 10:18:09;;;;;;;1.57;0.73;;;;;;;;;;6155580;23;20017;-85
2023/11/18 10:20:42;;;;;;;1.45;0.60;;;;;;;;;;6155867;23;20057;-85
2023/11/18 10:23:10;;;;;;;0.82;0.82;;;;;;;;;;6181174;23;20025;-85
2023/11/18 10:25:46;;;;;;;2.17;0.75;;;;;;;;;;6155781;23;20028;-86
2023/11/18 10:28:27;;;;;;;2.35;0.90;;;;;;;;;;6155336;23;20021;-85
2023/11/18 10:30:59;;;;;;;1.15;1.08;;;;;;;;;;6181571;23;20028;-85
2023/11/18 10:33:30;;;;;;;2.28;1.10;;;;;;;;;;6155258;23;20023;-85
2023/11/18 10:35:58;;;;;;;4.53;1.10;;;;;;;;;;6155877;23;20025;-86
2023/11/18 10:38:25;;;;;;;0.82;0.82;;;;;;;;;;6155459;23;20025;-86
2023/11/18 10:40:55;;;;;;;0.90;0.90;;;;;;;;;;6180235;23;20021;-85
2023/11/18 10:43:28;;;;;;;1.30;1.10;;;;;;;;;;6154794;22;20024;-84
2023/11/18 10:45:56;;;;;;;;;;;;;;;;;;6182009;23;20334;-85
2023/11/18 10:48:24;;;;;;;1.27;1.15;;;;;;;;;;6181363;23;19916;-85
2023/11/18 10:50:51;;;;;;;0.75;0.55;;;;;;;;;;6181210;23;20021;-85
2023/11/18 10:53:19;;;;;;;0.60;0.45;;;;;;;;;;6149880;23;20037;-85
2023/11/18 10:55:47;;;;;;;4.10;1.25;;;;;;;;;;6149881;23;20021;-85
2023/11/18 10:58:14;;;;;;;1.67;0.95;;;;;;;;;;6150094;23;20033;-85
2023/11/18 11:00:49;;;;;;;1.30;0.70;;;;;;;;;;6151279;23;20072;-85
2023/11/18 11:03:18;;;;;;;0.75;0.70;;;;;;;;;;6150079;23;20017;-85
2023/11/18 11:05:45;;;;;;;2.88;1.20;;;;;;;;;;6149731;23;20022;-85
2023/11/18 11:08:15;;;;;;;2.40;1.08;;;;;;;;;;6150883;23;20021;-85
2023/11/18 11:10:58;;;;;;;5.13;0.60;;;;;;;;;;6151084;23;20025;-85
2023/11/18 11:13:27;;;;;;;0.50;0.50;;;;;;;;;;6149960;23;20022;-84
2023/11/18 11:15:57;;;;;;;0.68;0.68;;;;;;;;;;6150465;23;20112;-85
2023/11/18 11:18:29;;;;;;;10.40;1.75;;;;;;;;;;6151379;23;20043;-86
2023/11/18 11:20:57;;;;;;;1.07;0.97;;;;;;;;;;6150073;23;20520;-85
2023/11/18 11:23:39;;;;;;;3.05;1.40;;;;;;;;;;6149758;23;20021;-85
2023/11/18 11:26:27;;;;;;;9.45;1.10;;;;;;;;;;6150880;23;20475;-85
2023/11/18 11:29:14;;;;;;;0.80;0.65;;;;;;;;;;6150932;23;20022;-86
2023/11/18 11:31:43;;;;;;;1.30;1.20;;;;;;;;;;6151458;23;20389;-86
2023/11/18 11:34:23;;;;;;;1.17;0.40;;;;;;;;;;6150897;23;20021;-85
2023/11/18 11:36:52;;;;;;;0.50;0.50;;;;;;;;;;6150917;23;20025;-85
2023/11/18 11:39:29;;;;;;;3.22;0.95;;;;;;;;;;6149920;23;20033;-86
2023/11/18 11:41:58;;;;;;;0.30;0.30;;;;;;;;;;6150289;23;20022;-84
2023/11/18 11:44:29;;;;;;;1.40;0.60;;;;;;;;;;6150687;23;20026;-85
2023/11/18 11:46:59;;;;;;;0.75;0.70;;;;;;;;;;6149870;23;20017;-84
2023/11/18 11:49:33;;;;;;;1.10;1.00;;;;;;;;;;6150026;23;20049;-85
2023/11/18 11:52:04;;;;;;;1.90;1.47;;;;;;;;;;6162828;23;20466;-84
2023/11/18 11:54:56;;;;;;;1.67;0.90;;;;;;;;;;6156222;23;20021;-85
2023/11/18 11:57:27;;;;;;;5.22;0.98;;;;;;;;;;6156572;23;20024;-85
2023/11/18 12:00:00;;;;;;;1.30;1.10;;;;;;;;;;6156791;23;20450;-85
2023/11/18 12:02:29;;;;;;;0.70;0.70;;;;;;;;;;6156274;23;20090;-85
2023/11/18 12:05:06;;;;;;;0.55;0.55;;;;;;;;;;6156497;23;20021;-85
2023/11/18 12:07:38;;;;;;;0.50;0.50;;;;;;;;;;6182135;23;20409;-85
2023/11/18 12:10:13;;;;;;;1.00;0.47;;;;;;;;;;6156689;23;20021;-84
2023/11/18 12:12:42;;;;;;;1.63;0.50;;;;;;;;;;6156173;23;20021;-84
2023/11/18 12:15:12;;;;;;;0.57;0.57;;;;;;;;;;6155971;23;20025;-85
2023/11/18 12:17:51;;;;;;;2.05;0.50;;;;;;;;;;6182422;23;20078;-85
2023/11/18 12:20:42;;;;;;;2.13;0.80;;;;;;;;;;6156295;23;20056;-85
2023/11/18 12:23:14;;;;;;;0.50;0.50;;;;;;;;;;6182231;23;20029;-85
2023/11/18 12:25:42;;;;;;;3.13;1.95;;;;;;;;;;6182200;23;20079;-85
2023/11/18 12:28:10;;;;;;;2.10;1.33;;;;;;;;;;6181871;23;20071;-86
2023/11/18 12:30:51;;;;;;;1.15;1.05;;;;;;;;;;6156628;23;20032;-84
2023/11/18 12:33:22;;;;;;;1.70;1.27;;;;;;;;;;6156865;23;20319;-86
2023/11/18 12:35:50;;;;;;;2.03;1.58;;;;;;;;;;6183925;23;20033;-85
2023/11/18 12:38:39;;;;;;;1.02;0.98;;;;;;;;;;6158317;23;20345;-86
2023/11/18 12:41:11;;;;;;;1.17;1.08;;;;;;;;;;6155981;23;20025;-85
2023/11/18 12:43:45;;;;;;;1.90;1.00;;;;;;;;;;6155618;23;20061;-86
2023/11/18 12:46:31;;;;;;;1.52;1.10;;;;;;;;;;6155856;23;20021;-85
2023/11/18 12:49:01;;;;;;;2.33;1.30;;;;;;;;;;6155743;23;20388;-85
2023/11/18 12:51:31;;;;;;;3.05;1.30;;;;;;;;;;6155417;23;20029;-85
2023/11/18 12:53:58;;;;;;;2.03;1.33;;;;;;;;;;6155865;23;20025;-85
2023/11/18 12:56:28;;;;;;;2.55;1.20;;;;;;;;;;6154838;23;20017;-84
2023/11/18 12:58:56;;;;;;;2.20;1.80;;;;;;;;;;6156574;22;20047;-85
2023/11/18 13:01:23;;;;;;;4.65;2.15;;;;;;;;;;6155576;23;20021;-85
2023/11/18 13:03:53;;;;;;;2.22;1.98;;;;;;;;;;6155167;23;20017;-85
2023/11/18 13:06:25;;;;;;;4.85;2.40;;;;;;;;;;6156102;23;20075;-84
2023/11/18 13:08:54;;;;;;;5.93;2.70;;;;;;;;;;6156009;23;20064;-85
2023/11/18 13:11:23;;;;;;;2.50;2.30;;;;;;;;;;6155838;23;20021;-85
2023/11/18 13:13:53;;;;;;;5.35;3.22;;;;;;;;;;6155677;23;20088;-85
2023/11/18 13:16:21;;;;;;;5.25;2.90;;;;;;;;;;6156115;23;20021;-85
2023/11/18 13:18:49;;;;;;;3.30;2.95;;;;;;;;;;6182035;23;20029;-85
2023/11/18 13:21:17;;;;;;;9.48;4.13;;;;;;;;;;6181687;23;20458;-85
2023/11/18 13:23:48;;;;;;;3.10;2.80;;;;;;;;;;6155259;23;20017;-85
2023/11/18 13:26:15;;;;;;;4.38;2.90;;;;;;;;;;6155920;23;20330;-85
2023/11/18 13:28:43;;;;;;;5.03;3.00;;;;;;;;;;6155839;23;20021;-85
2023/11/18 13:31:11;;;;;;;3.50;3.25;;;;;;;;;;6181761;23;20025;-85
2023/11/18 13:33:39;;;;;;;3.63;3.42;;;;;;;;;;6155735;23;20017;-85
2023/11/18 13:36:09;;;;;;;3.10;2.53;;;;;;;;;;6181168;23;20033;-83
2023/11/18 13:38:37;;;;;;;3.75;3.05;;;;;;;;;;6181582;23;20488;-85
2023/11/18 13:41:07;;;;;;;3.58;3.28;;;;;;;;;;6155888;23;20079;-84
2023/11/18 13:43:45;;;;;;;3.50;3.20;;;;;;;;;;6155248;23;20027;-85
2023/11/18 13:46:21;;;;;;;4.60;3.50;;;;;;;;;;6155779;23;20383;-85
2023/11/18 13:48:52;;;;;;;3.63;3.33;;;;;;;;;;6155830;23;20018;-84
2023/11/18 13:51:21;;;;;;;4.10;3.50;;;;;;;;;;6155568;23;20025;-85
2023/11/18 13:53:48;;;;;;;5.63;3.80;;;;;;;;;;6155633;23;20024;-85
2023/11/18 13:56:16;;;;;;;8.68;4.38;;;;;;;;;;6155802;23;20025;-85
2023/11/18 13:58:45;;;;;;;5.80;4.53;;;;;;;;;;6181868;23;20018;-85
2023/11/18 14:01:13;;;;;;;5.80;5.28;;;;;;;;;;6155683;23;20043;-84
2023/11/18 14:03:42;;;;;;;5.60;3.55;;;;;;;;;;6155523;23;20024;-85
2023/11/18 14:06:10;;;;;;;6.15;3.65;;;;;;;;;;6155462;23;20465;-85
2023/11/18 14:08:38;;;;;;;4.65;3.50;;;;;;;;;;6181392;23;20017;-85
2023/11/18 14:11:09;;;;;;;4.25;3.85;;;;;;;;;;6155473;23;20029;-85
2023/11/18 14:13:43;;;;;;;4.35;4.00;;;;;;;;;;6156698;23;20104;-84
2023/11/18 14:16:12;;;;;;;4.38;3.70;;;;;;;;;;6181423;23;20017;-85
2023/11/18 14:18:41;;;;;;;4.25;3.67;;;;;;;;;;6155750;23;20025;-85
2023/11/18 14:21:09;;;;;;;4.10;3.72;;;;;;;;;;6181581;23;20032;-85
2023/11/18 14:23:37;;;;;;;3.95;3.65;;;;;;;;;;6155305;23;20100;-85
2023/11/18 14:26:07;;;;;;;4.30;3.97;;;;;;;;;;6180388;23;20341;-85
2023/11/18 14:28:34;;;;;;;3.72;3.50;;;;;;;;;;6155614;23;20074;-85
2023/11/18 14:31:07;;;;;;;5.70;5.10;;;;;;;;;;6155967;23;20017;-84
2023/11/18 14:33:35;;;;;;;5.55;4.45;;;;;;;;;;6154901;23;20025;-84
2023/11/18 14:36:05;;;;;;;5.20;4.75;;;;;;;;;;6181628;23;20017;-85
2023/11/18 14:38:34;;;;;;;5.05;4.65;;;;;;;;;;6155334;23;20028;-85
2023/11/18 14:41:02;;;;;;;5.88;4.75;;;;;;;;;;6155275;22;20033;-85
2023/11/18 14:43:30;;;;;;;6.45;5.80;;;;;;;;;;6155182;23;20043;-85
2023/11/18 14:45:57;;;;;;;5.10;4.60;;;;;;;;;;6155129;23;20027;-85
2023/11/18 14:48:25;;;;;;;5.63;4.90;;;;;;;;;;6181415;23;20017;-85
2023/11/18 14:50:52;;;;;;;5.25;4.75;;;;;;;;;;6154924;23;20021;-85
2023/11/18 14:53:19;;;;;;;5.32;4.82;;;;;;;;;;6154803;23;20036;-85
2023/11/18 14:55:47;;;;;;;5.22;4.57;;;;;;;;;;6181295;23;20346;-85